Time;durP1;ratioP1;P1;durP2;ratioP2;P2;SDS_P1;SDS_P2;PMS_P1;PMS_P2;Temp;Humidity;BMP_temperature;BMP_pressure;BME280_temperature;BME280_humidity;BME280_pressure;Samples;Min_cycle;Max_cycle;Signal;HPM_P1;HPM_P2
2022/02/24 00:01:44;;;;;;;29.52;14.85;;;;;;;1.18;74.32;101473.09;5110992;28;20019;-75
2022/02/24 00:04:10;;;;;;;32.65;14.65;;;;;;;1.12;74.49;101470.63;5110775;28;20106;-75
2022/02/24 00:06:35;;;;;;;29.33;15.00;;;;;;;1.02;75.09;101467.44;5110336;28;20031;-75
2022/02/24 00:09:01;;;;;;;26.75;13.82;;;;;;;1.03;75.35;101471.78;5110352;28;20079;-75
2022/02/24 00:11:26;;;;;;;25.05;13.13;;;;;;;0.96;75.64;101474.66;5110531;28;20395;-75
2022/02/24 00:13:52;;;;;;;32.80;13.77;;;;;;;0.88;75.83;101468.75;5109291;28;20027;-75
2022/02/24 00:16:17;;;;;;;31.42;14.25;;;;;;;0.90;76.12;101473.06;5110583;28;20423;-75
2022/02/24 00:18:43;;;;;;;30.85;13.57;;;;;;;0.88;75.80;101479.31;5110654;28;20027;-75
2022/02/24 00:21:08;;;;;;;32.15;14.65;;;;;;;0.85;75.41;101485.56;5110238;28;20020;-74
2022/02/24 00:23:34;;;;;;;29.17;13.85;;;;;;;0.81;75.23;101483.06;5110012;28;20679;-70
2022/02/24 00:25:59;;;;;;;28.73;13.50;;;;;;;0.77;75.26;101487.56;5109541;28;20041;-75
2022/02/24 00:28:24;;;;;;;30.98;13.65;;;;;;;0.68;76.01;101477.25;5107667;28;20161;-74
2022/02/24 00:30:50;;;;;;;32.92;14.52;;;;;;;0.68;76.33;101473.78;5109987;28;20020;-76
2022/02/24 00:33:15;;;;;;;30.23;14.20;;;;;;;0.70;76.75;101488.66;5110452;28;20677;-75
2022/02/24 00:35:41;;;;;;;24.95;13.30;;;;;;;0.62;77.07;101476.59;5110249;28;20449;-74
2022/02/24 00:38:06;;;;;;;34.03;14.88;;;;;;;0.60;76.21;101471.34;5109918;28;20067;-75
2022/02/24 00:40:32;;;;;;;26.50;13.38;;;;;;;0.65;76.22;101490.56;5110074;27;20027;-75
2022/02/24 00:42:57;;;;;;;24.80;13.20;;;;;;;0.51;76.02;101476.88;5109701;28;20027;-74
2022/02/24 00:45:23;;;;;;;31.27;13.25;;;;;;;0.58;76.10;101488.16;5110361;28;20030;-75
2022/02/24 00:47:48;;;;;;;26.05;13.02;;;;;;;0.55;76.59;101489.06;5110230;28;20441;-75
2022/02/24 00:50:14;;;;;;;24.67;13.07;;;;;;;0.45;77.02;101471.78;5110312;28;20051;-73
2022/02/24 00:52:39;;;;;;;34.35;14.00;;;;;;;0.48;76.87;101481.41;5110183;28;20475;-74
2022/02/24 00:55:05;;;;;;;34.47;14.15;;;;;;;0.45;77.05;101484.97;5110154;28;20027;-74
2022/02/24 00:57:30;;;;;;;26.70;13.18;;;;;;;0.33;77.22;101465.97;5110622;28;20058;-74
2022/02/24 00:59:56;;;;;;;33.40;14.60;;;;;;;0.34;77.28;101472.97;5110213;28;20023;-74
2022/02/24 01:02:21;;;;;;;25.42;12.00;;;;;;;0.36;76.94;101485.25;5110334;28;20054;-75
2022/02/24 01:04:47;;;;;;;26.42;12.55;;;;;;;0.33;77.20;101485.31;5110225;28;20055;-75
2022/02/24 01:07:12;;;;;;;27.60;13.35;;;;;;;0.33;76.79;101485.31;5110103;28;20053;-74
2022/02/24 01:09:38;;;;;;;28.65;12.85;;;;;;;0.18;76.50;101469.03;5110007;28;20023;-75
2022/02/24 01:12:04;;;;;;;27.20;13.02;;;;;;;0.26;76.35;101483.78;5108612;28;20100;-69
2022/02/24 01:14:29;;;;;;;23.08;12.13;;;;;;;0.21;76.57;101476.88;5108976;28;20165;-74
2022/02/24 01:16:55;;;;;;;28.42;12.70;;;;;;;0.17;76.35;101478.75;5107766;28;20023;-74
2022/02/24 01:19:20;;;;;;;28.27;13.27;;;;;;;0.06;76.61;101462.31;5109799;28;20083;-74
2022/02/24 01:21:46;;;;;;;27.95;13.13;;;;;;;0.11;76.87;101478.91;5110288;28;20023;-74
2022/02/24 01:24:11;;;;;;;29.27;13.13;;;;;;;0.08;76.81;101484.25;5109701;28;20024;-74
2022/02/24 01:26:37;;;;;;;28.20;13.25;;;;;;;-0.02;76.99;101467.81;5110102;28;20054;-74
2022/02/24 01:29:02;;;;;;;23.45;12.73;;;;;;;0.05;76.72;101489.59;5110086;28;20081;-75
2022/02/24 01:31:28;;;;;;;22.33;12.15;;;;;;;-0.01;76.41;101488.00;5109661;28;20471;-74
2022/02/24 01:33:53;;;;;;;27.15;12.35;;;;;;;-0.15;76.51;101466.41;5109751;28;20035;-74
2022/02/24 01:36:19;;;;;;;27.27;12.68;;;;;;;-0.09;77.03;101475.94;5109401;28;20049;-76
2022/02/24 01:38:44;;;;;;;24.25;12.00;;;;;;;-0.09;77.63;101474.13;5110214;28;20023;-74
2022/02/24 01:41:10;;;;;;;28.58;13.50;;;;;;;-0.22;77.97;101463.97;5109496;28;20026;-74
2022/02/24 01:43:35;;;;;;;25.10;11.82;;;;;;;-0.18;78.21;101473.53;5109767;28;20120;-74
2022/02/24 01:46:01;;;;;;;30.45;13.05;;;;;;;-0.17;77.99;101476.13;5109201;28;20030;-70
2022/02/24 01:48:26;;;;;;;26.23;12.38;;;;;;;-0.21;77.96;101479.75;5108415;28;20027;-70
2022/02/24 01:50:52;;;;;;;25.38;12.05;;;;;;;-0.27;78.37;101476.38;5108520;28;20140;-71
2022/02/24 01:53:18;;;;;;;22.85;12.30;;;;;;;-0.24;77.99;101487.72;5108714;28;20027;-71
2022/02/24 01:55:43;;;;;;;27.35;13.45;;;;;;;-0.24;78.55;101495.63;5107358;28;20126;-70
2022/02/24 01:58:09;;;;;;;28.88;12.65;;;;;;;-0.30;78.66;101479.97;5106968;28;20035;-71
2022/02/24 02:00:35;;;;;;;28.83;13.30;;;;;;;-0.29;78.28;101486.13;5108011;28;20108;-69
2022/02/24 02:03:00;;;;;;;25.33;13.15;;;;;;;-0.43;77.51;101469.75;5106419;28;20019;-70
2022/02/24 02:05:28;;;;;;;26.95;12.48;;;;;;;-0.46;77.80;101461.94;5108369;28;20042;-71
2022/02/24 02:07:56;;;;;;;31.52;12.77;;;;;;;-0.48;77.83;101466.41;5106054;28;20038;-70
2022/02/24 02:10:21;;;;;;;27.33;12.88;;;;;;;-0.43;77.28;101478.53;5106417;28;20119;-70
2022/02/24 02:12:50;;;;;;;27.42;12.18;;;;;;;-0.58;77.08;101455.19;5108642;28;20102;-72
2022/02/24 02:15:16;;;;;;;27.02;12.80;;;;;;;-0.57;77.72;101459.59;5106832;28;20039;-70
2022/02/24 02:17:42;;;;;;;31.85;13.15;;;;;;;-0.50;78.05;101469.06;5107612;28;20034;-70
2022/02/24 02:20:08;;;;;;;27.05;14.48;;;;;;;-0.52;78.18;101469.97;5107804;28;20036;-71
2022/02/24 02:22:34;;;;;;;25.40;12.88;;;;;;;-0.65;78.14;101450.09;5108123;28;20023;-70
2022/02/24 02:25:03;;;;;;;22.08;11.65;;;;;;;-0.53;77.56;101487.59;5108420;28;20484;-74
2022/02/24 02:27:29;;;;;;;26.15;12.02;;;;;;;-0.57;77.50;101490.31;5109165;28;20020;-74
2022/02/24 02:29:54;;;;;;;29.13;12.75;;;;;;;-0.61;78.03;101478.13;5112079;28;20032;-74
2022/02/24 02:32:20;;;;;;;28.23;12.93;;;;;;;-0.63;78.83;101488.72;5112634;28;20019;-75
2022/02/24 02:34:45;;;;;;;29.60;12.65;;;;;;;-0.67;79.31;101483.53;5113246;28;20027;-74
2022/02/24 02:37:11;;;;;;;27.17;13.55;;;;;;;-0.68;79.55;101487.09;5111666;28;20024;-75
2022/02/24 02:39:36;;;;;;;27.77;13.27;;;;;;;-0.68;79.04;101482.66;5112684;28;20051;-75
2022/02/24 02:42:02;;;;;;;29.10;13.55;;;;;;;-0.72;78.76;101486.28;5113088;28;20012;-75
2022/02/24 02:44:27;;;;;;;25.25;13.05;;;;;;;-0.71;79.00;101492.44;5112806;28;20036;-75
2022/02/24 02:46:52;;;;;;;27.98;14.68;;;;;;;-0.76;79.15;101486.38;5112855;28;20030;-74
2022/02/24 02:49:18;;;;;;;29.05;13.50;;;;;;;-0.75;79.17;101496.00;5112807;28;20048;-75
2022/02/24 02:51:43;;;;;;;27.77;12.75;;;;;;;-0.88;78.69;101473.50;5113043;28;20077;-74
2022/02/24 02:54:09;;;;;;;27.13;14.32;;;;;;;-0.81;78.78;101496.19;5112436;28;20143;-74
2022/02/24 02:56:35;;;;;;;28.35;13.57;;;;;;;-0.92;78.31;101488.50;5112108;28;20023;-74
2022/02/24 02:59:00;;;;;;;25.23;13.68;;;;;;;-0.87;78.49;101496.31;5112406;28;20073;-76
2022/02/24 03:01:26;;;;;;;34.67;15.38;;;;;;;-0.90;78.40;101499.84;5112231;28;20020;-75
2022/02/24 03:03:52;;;;;;;30.20;14.55;;;;;;;-0.92;78.62;101503.44;5111835;28;20044;-73
2022/02/24 03:06:18;;;;;;;26.60;13.77;;;;;;;-0.96;78.39;101493.88;5112664;28;20019;-74
2022/02/24 03:08:44;;;;;;;26.73;12.82;;;;;;;-0.99;78.95;101496.56;5112185;28;20081;-75
2022/02/24 03:11:09;;;;;;;32.40;14.90;;;;;;;-1.04;79.23;101496.66;5112052;28;20275;-75
2022/02/24 03:13:35;;;;;;;27.63;13.05;;;;;;;-1.01;79.49;101499.25;5112050;28;20414;-75
2022/02/24 03:16:02;;;;;;;30.65;13.65;;;;;;;-1.10;79.64;101491.53;5111868;28;20039;-75
2022/02/24 03:18:27;;;;;;;33.80;13.95;;;;;;;-1.09;79.14;101495.03;5111924;28;20027;-75
2022/02/24 03:20:52;;;;;;;30.20;14.10;;;;;;;-1.10;78.90;101502.06;5111741;27;20015;-75
2022/02/24 03:23:18;;;;;;;30.45;14.00;;;;;;;-1.14;79.57;101502.16;5112231;28;20039;-74
2022/02/24 03:25:43;;;;;;;31.27;13.88;;;;;;;-1.15;79.35;101506.59;5111725;28;20102;-74
2022/02/24 03:28:09;;;;;;;30.17;13.63;;;;;;;-1.20;79.81;101494.38;5111557;28;20032;-76
2022/02/24 03:30:35;;;;;;;29.13;13.88;;;;;;;-1.27;79.67;101495.44;5111529;28;20040;-75
2022/02/24 03:33:03;;;;;;;31.83;14.70;;;;;;;-1.20;79.19;101510.19;5111637;27;20081;-74
2022/02/24 03:35:30;;;;;;;32.70;13.70;;;;;;;-1.25;79.70;101509.44;5112085;28;20363;-74
2022/02/24 03:37:55;;;;;;;30.35;14.68;;;;;;;-1.30;80.17;101500.75;5111638;28;20058;-74
2022/02/24 03:40:22;;;;;;;30.73;15.15;;;;;;;-1.30;80.34;101503.38;5110860;27;20095;-74
2022/02/24 03:42:49;;;;;;;33.47;16.67;;;;;;;-1.30;80.23;101517.41;5108973;28;20038;-74
2022/02/24 03:45:15;;;;;;;28.67;15.25;;;;;;;-1.33;80.07;101511.34;5110011;28;20436;-75
2022/02/24 03:47:41;;;;;;;32.63;15.10;;;;;;;-1.36;79.76;101512.28;5110789;28;20467;-70
2022/02/24 03:50:07;;;;;;;33.28;15.18;;;;;;;-1.37;79.79;101513.19;5109778;28;20047;-70
2022/02/24 03:52:33;;;;;;;33.75;14.50;;;;;;;-1.50;80.00;101501.16;5110215;28;20475;-70
2022/02/24 03:54:58;;;;;;;34.92;14.20;;;;;;;-1.45;79.38;101508.97;5110348;28;20042;-69
2022/02/24 03:57:24;;;;;;;31.40;15.00;;;;;;;-1.49;79.54;101507.31;5110190;28;20147;-71
2022/02/24 03:59:50;;;;;;;31.90;14.65;;;;;;;-1.57;79.32;101499.56;5110095;28;20036;-71
2022/02/24 04:02:15;;;;;;;28.60;13.52;;;;;;;-1.59;78.91;101498.72;5109852;28;20520;-71
2022/02/24 04:04:42;;;;;;;31.63;13.88;;;;;;;-1.52;78.93;101510.00;5110144;28;20093;-70
2022/02/24 04:07:08;;;;;;;28.02;13.82;;;;;;;-1.55;79.41;101508.28;5109941;28;20027;-71
2022/02/24 04:09:35;;;;;;;33.15;14.23;;;;;;;-1.58;79.54;101504.84;5109858;28;20024;-70
2022/02/24 04:12:01;;;;;;;33.88;14.52;;;;;;;-1.58;80.19;101504.84;5109513;28;20384;-71
2022/02/24 04:14:27;;;;;;;32.10;13.63;;;;;;;-1.70;80.55;101479.66;5109970;27;20450;-70
2022/02/24 04:16:52;;;;;;;36.35;14.40;;;;;;;-1.73;80.26;101476.22;5109912;28;20028;-71
2022/02/24 04:19:18;;;;;;;32.80;14.02;;;;;;;-1.69;80.28;101488.41;5109933;27;20041;-70
2022/02/24 04:21:44;;;;;;;37.50;16.00;;;;;;;-1.69;80.52;101496.28;5109777;28;20470;-70
2022/02/24 04:24:09;;;;;;;32.28;14.68;;;;;;;-1.70;80.29;101505.97;5109477;28;20039;-70
2022/02/24 04:26:35;;;;;;;28.85;14.52;;;;;;;-1.82;80.26;101481.66;5109477;28;20032;-70
2022/02/24 04:29:01;;;;;;;34.90;14.98;;;;;;;-1.87;80.70;101471.22;5109067;28;20049;-75
2022/02/24 04:31:27;;;;;;;32.08;16.45;;;;;;;-1.73;80.86;101497.25;5110774;28;20028;-75
2022/02/24 04:33:52;;;;;;;31.73;14.07;;;;;;;-1.78;80.66;101493.88;5111417;28;20034;-74
2022/02/24 04:36:18;;;;;;;35.20;15.15;;;;;;;-1.83;80.18;101487.81;5109162;28;20038;-75
2022/02/24 04:38:44;;;;;;;31.52;14.48;;;;;;;-1.80;80.41;101493.88;5110571;28;20019;-74
2022/02/24 04:41:09;;;;;;;39.85;15.10;;;;;;;-1.85;80.09;101486.97;5110253;28;20019;-75
2022/02/24 04:43:35;;;;;;;32.80;15.07;;;;;;;-1.87;79.50;101484.34;5110527;28;20064;-75
2022/02/24 04:46:01;;;;;;;30.83;15.55;;;;;;;-1.90;79.84;101476.56;5110124;28;20375;-74
2022/02/24 04:48:27;;;;;;;36.30;15.10;;;;;;;-1.89;80.11;101477.41;5110590;28;20461;-73
2022/02/24 04:50:52;;;;;;;38.45;16.00;;;;;;;-1.99;80.63;101466.22;5109996;28;20039;-75
2022/02/24 04:53:18;;;;;;;33.40;14.38;;;;;;;-1.96;80.60;101474.03;5109736;28;20022;-74
2022/02/24 04:55:44;;;;;;;37.75;14.50;;;;;;;-1.94;80.54;101484.53;5109733;28;20080;-74
2022/02/24 04:58:09;;;;;;;39.75;15.98;;;;;;;-2.04;80.46;101470.66;5109932;28;20032;-74
2022/02/24 05:00:36;;;;;;;28.52;13.77;;;;;;;-2.02;80.68;101482.03;5109462;28;20563;-74
2022/02/24 05:03:02;;;;;;;33.22;15.00;;;;;;;-1.99;80.60;101491.63;5109507;28;20050;-75
2022/02/24 05:05:27;;;;;;;32.92;14.18;;;;;;;-2.02;80.25;101491.66;5109584;28;20063;-74
2022/02/24 05:07:53;;;;;;;30.75;15.20;;;;;;;-2.04;79.98;101490.84;5108581;28;20035;-73
2022/02/24 05:10:18;;;;;;;32.90;14.68;;;;;;;-2.07;80.07;101493.53;5108844;28;20654;-75
2022/02/24 05:12:44;;;;;;;36.30;15.75;;;;;;;-2.09;80.47;101495.31;5109543;28;20023;-74
2022/02/24 05:15:10;;;;;;;36.72;14.45;;;;;;;-2.12;80.88;101500.59;5109161;28;20035;-74
2022/02/24 05:17:39;;;;;;;32.90;15.45;;;;;;;-2.13;80.24;101501.50;5109378;28;20110;-74
2022/02/24 05:20:06;;;;;;;35.03;15.02;;;;;;;-2.19;80.31;101501.63;5109174;28;20042;-74
2022/02/24 05:22:31;;;;;;;31.77;14.15;;;;;;;-2.23;79.99;101503.41;5109346;28;20037;-73
2022/02/24 05:24:57;;;;;;;34.90;16.40;;;;;;;-2.30;80.42;101485.19;5108873;28;20094;-69
2022/02/24 05:27:22;;;;;;;34.45;15.00;;;;;;;-2.29;80.79;101497.41;5107098;28;20036;-71
2022/02/24 05:29:48;;;;;;;33.97;16.35;;;;;;;-2.30;82.03;101496.53;5108111;28;20033;-69
2022/02/24 05:32:13;;;;;;;37.70;16.05;;;;;;;-2.22;81.68;101517.44;5105686;28;20035;-69
2022/02/24 05:34:39;;;;;;;35.83;16.92;;;;;;;-2.27;81.64;101507.00;5107020;28;20490;-70
2022/02/24 05:37:04;;;;;;;36.05;15.73;;;;;;;-2.36;81.11;101494.88;5105438;28;20040;-71
2022/02/24 05:39:30;;;;;;;41.65;15.93;;;;;;;-2.29;80.73;101510.53;5104844;28;20650;-69
2022/02/24 05:41:56;;;;;;;27.98;14.65;;;;;;;-2.29;80.70;101508.75;5108765;28;20379;-71
2022/02/24 05:44:21;;;;;;;33.95;15.48;;;;;;;-2.29;80.91;101507.91;5108253;28;20106;-69
2022/02/24 05:46:47;;;;;;;29.63;15.05;;;;;;;-2.24;81.35;101514.81;5108287;28;20115;-69
2022/02/24 05:49:15;;;;;;;36.40;15.50;;;;;;;-2.40;81.95;101494.97;5107923;28;20047;-70
2022/02/24 05:51:41;;;;;;;42.40;16.08;;;;;;;-2.33;82.44;101496.59;5108173;28;20032;-70
2022/02/24 05:54:07;;;;;;;36.90;15.40;;;;;;;-2.29;83.37;101510.53;5106612;28;20122;-68
2022/02/24 05:56:32;;;;;;;38.90;17.15;;;;;;;-2.33;83.49;101502.72;5108039;28;20437;-71
2022/02/24 05:58:58;;;;;;;33.80;15.95;;;;;;;-2.25;83.36;101515.72;5106994;28;20024;-70
2022/02/24 06:01:23;;;;;;;29.90;15.23;;;;;;;-2.30;83.29;101511.44;5108703;28;20026;-69
2022/02/24 06:03:48;;;;;;;36.72;15.70;;;;;;;-2.22;83.52;101522.69;5108876;28;20024;-72
2022/02/24 06:06:14;;;;;;;41.08;15.52;;;;;;;-2.21;83.39;101530.53;5112614;28;20092;-71
2022/02/24 06:08:39;;;;;;;37.22;16.92;;;;;;;-2.31;83.17;101513.19;5112875;28;20043;-75
2022/02/24 06:11:05;;;;;;;32.83;15.82;;;;;;;-2.22;83.49;101523.56;5113134;27;20045;-74
2022/02/24 06:13:30;;;;;;;43.67;16.23;;;;;;;-2.18;83.84;101521.72;5112865;28;20114;-74
2022/02/24 06:15:56;;;;;;;40.95;15.48;;;;;;;-2.14;84.17;101526.03;5112491;28;20782;-74
2022/02/24 06:18:21;;;;;;;38.50;15.13;;;;;;;-2.10;84.66;101525.13;5110478;28;20024;-73
2022/02/24 06:20:47;;;;;;;43.28;17.65;;;;;;;-2.07;84.55;101538.19;5112384;28;20030;-75
2022/02/24 06:23:13;;;;;;;42.72;16.42;;;;;;;-2.03;84.90;101535.50;5110819;28;20454;-74
2022/02/24 06:25:39;;;;;;;40.38;17.02;;;;;;;-1.97;85.24;101535.38;5112593;28;20115;-74
2022/02/24 06:28:04;;;;;;;43.85;16.85;;;;;;;-1.99;85.60;101525.78;5110516;28;20106;-74
2022/02/24 06:30:29;;;;;;;51.80;17.48;;;;;;;-1.86;85.85;101535.19;5112454;28;20487;-73
2022/02/24 06:32:55;;;;;;;47.22;17.30;;;;;;;-1.90;86.63;101512.47;5111462;28;20486;-73
2022/02/24 06:35:20;;;;;;;48.28;18.75;;;;;;;-1.82;87.18;101521.06;5112585;27;20549;-74
2022/02/24 06:37:46;;;;;;;52.78;18.13;;;;;;;-1.74;87.81;101525.28;5112543;28;20043;-74
2022/02/24 06:40:13;;;;;;;41.00;18.23;;;;;;;-1.66;88.49;101522.53;5112211;28;20023;-73
2022/02/24 06:42:39;;;;;;;44.10;19.25;;;;;;;-1.58;88.78;101525.91;5112162;28;20023;-72
2022/02/24 06:45:06;;;;;;;37.38;18.35;;;;;;;-1.49;89.25;101529.19;5111133;28;20031;-72
2022/02/24 06:47:31;;;;;;;41.33;20.75;;;;;;;-1.52;89.96;101510.84;5109592;28;20459;-72
2022/02/24 06:49:56;;;;;;;47.78;20.83;;;;;;;-1.40;90.33;101525.50;5112255;28;20049;-75
2022/02/24 06:52:22;;;;;;;42.75;18.65;;;;;;;-1.29;90.67;101529.66;5112240;28;20027;-73
2022/02/24 06:54:48;;;;;;;45.47;19.45;;;;;;;-1.14;90.96;101544.28;5112754;28;20061;-73
2022/02/24 06:57:13;;;;;;;45.03;19.73;;;;;;;-1.03;91.50;101537.03;5112027;28;20044;-75
2022/02/24 06:59:39;;;;;;;49.28;19.38;;;;;;;-0.98;91.74;101527.25;5107449;28;20687;-73
2022/02/24 07:02:08;;;;;;;42.83;21.52;;;;;;;-0.87;92.57;101522.63;5109590;28;20028;-74
2022/02/24 07:04:34;;;;;;;57.22;23.20;;;;;;;-0.70;92.95;101536.28;5111892;28;20027;-74
2022/02/24 07:07:00;;;;;;;43.83;21.73;;;;;;;-0.54;93.28;101537.69;5111231;28;20031;-74
2022/02/24 07:09:28;;;;;;;45.75;22.92;;;;;;;-0.46;93.48;101533.94;5106402;28;20633;-74
2022/02/24 07:11:54;;;;;;;48.90;22.40;;;;;;;-0.38;93.71;101518.81;5110091;28;20555;-75
2022/02/24 07:14:20;;;;;;;42.13;20.65;;;;;;;-0.11;93.38;101527.81;5111737;28;20019;-75
2022/02/24 07:16:45;;;;;;;48.45;20.75;;;;;;;0.04;93.73;101536.19;5111520;28;20475;-75
2022/02/24 07:19:11;;;;;;;35.58;19.38;;;;;;;0.22;93.42;101532.22;5111310;28;20027;-74
2022/02/24 07:21:37;;;;;;;46.00;20.50;;;;;;;0.32;93.29;101512.59;5110693;28;20267;-74
2022/02/24 07:24:02;;;;;;;41.53;19.65;;;;;;;0.61;93.58;101523.22;5109389;28;20062;-75
2022/02/24 07:26:28;;;;;;;37.33;19.30;;;;;;;0.77;93.58;101513.09;5110453;28;20023;-74
2022/02/24 07:28:53;;;;;;;39.42;19.35;;;;;;;1.00;93.38;101511.50;5111016;28;20035;-74
2022/02/24 07:31:19;;;;;;;32.08;18.52;;;;;;;1.20;93.86;101513.56;5111339;28;20078;-74
2022/02/24 07:33:44;;;;;;;38.22;18.05;;;;;;;1.48;93.93;101510.00;5111559;28;20035;-74
2022/02/24 07:36:10;;;;;;;41.72;18.88;;;;;;;1.62;93.57;101491.91;5111081;28;20081;-74
2022/02/24 07:38:35;;;;;;;40.10;21.77;;;;;;;1.89;93.19;101504.22;5111083;28;20364;-74
2022/02/24 07:41:01;;;;;;;52.92;24.00;;;;;;;2.17;92.24;101504.16;5110940;28;20129;-73
2022/02/24 07:43:26;;;;;;;55.35;26.45;;;;;;;2.49;91.27;101514.47;5111391;28;20389;-74
2022/02/24 07:45:52;;;;;;;50.83;26.25;;;;;;;2.80;89.80;101515.06;5110662;28;20488;-75
2022/02/24 07:48:17;;;;;;;47.72;20.80;;;;;;;3.19;83.51;101494.16;5110841;27;20085;-75
2022/02/24 07:50:43;;;;;;;42.67;19.80;;;;;;;3.49;80.25;101490.28;5110724;28;20058;-75
2022/02/24 07:53:08;;;;;;;35.35;17.05;;;;;;;4.04;77.09;101492.41;5110684;28;20483;-75
2022/02/24 07:55:33;;;;;;;35.72;18.73;;;;;;;4.81;73.00;101484.50;5110662;28;20107;-75
2022/02/24 07:57:59;;;;;;;35.38;16.05;;;;;;;5.80;66.77;101490.31;5110816;28;20034;-74
2022/02/24 08:00:24;;;;;;;40.90;16.13;;;;;;;6.85;61.38;101482.16;5110978;28;20084;-74
2022/02/24 08:02:55;;;;;;;38.40;16.50;;;;;;;7.89;57.05;101469.97;5110407;28;20019;-74
2022/02/24 08:05:21;;;;;;;33.25;15.55;;;;;;;8.96;53.94;101473.16;5110685;28;20658;-74
2022/02/24 08:07:47;;;;;;;25.33;13.13;;;;;;;9.90;50.44;101459.81;5110651;28;20419;-73
2022/02/24 08:10:13;;;;;;;32.40;12.38;;;;;;;10.82;47.82;101465.00;5109991;28;20030;-76
2022/02/24 08:12:39;;;;;;;22.50;10.57;;;;;;;11.60;46.06;101469.13;5110476;28;20032;-75
2022/02/24 08:15:21;;;;;;;18.80;9.52;;;;;;;12.19;44.26;101437.78;5110253;28;20032;-75
2022/02/24 08:17:49;;;;;;;23.45;9.82;;;;;;;12.91;42.61;101448.19;5109248;28;20019;-74
2022/02/24 08:20:14;;;;;;;16.27;9.02;;;;;;;13.31;40.95;101436.81;5109087;28;20015;-75
2022/02/24 08:22:45;;;;;;;14.35;6.72;;;;;;;13.53;40.07;101444.84;5110171;28;20080;-76
2022/02/24 08:25:13;;;;;;;12.30;5.53;;;;;;;13.10;40.93;101448.47;5110262;28;20500;-75
2022/02/24 08:27:39;;;;;;;11.02;5.03;;;;;;;12.53;42.38;101461.09;5109699;28;20125;-76
2022/02/24 08:30:09;;;;;;;14.75;5.07;;;;;;;11.99;43.43;101454.59;5110008;28;20031;-76
2022/02/24 08:32:35;;;;;;;11.32;5.53;;;;;;;11.47;44.63;101455.75;5107871;28;20035;-75
2022/02/24 08:35:01;;;;;;;8.75;5.40;;;;;;;11.06;45.56;101457.88;5110079;28;20031;-75
2022/02/24 08:37:27;;;;;;;11.82;5.93;;;;;;;10.75;45.74;101455.69;5110011;28;20050;-75
2022/02/24 08:39:53;;;;;;;14.10;5.93;;;;;;;10.30;47.29;101448.16;5109972;28;20360;-76
2022/02/24 08:42:18;;;;;;;13.82;5.65;;;;;;;10.02;47.90;101442.91;5107372;28;20035;-76
2022/02/24 08:44:44;;;;;;;9.43;5.38;;;;;;;9.81;48.49;101454.22;5109683;28;20028;-76
2022/02/24 08:47:11;;;;;;;13.63;6.47;;;;;;;9.61;49.60;101446.66;5108415;28;20498;-77
2022/02/24 08:49:37;;;;;;;11.27;5.75;;;;;;;9.36;49.82;101431.31;5109804;28;20046;-74
2022/02/24 08:52:03;;;;;;;10.38;4.78;;;;;;;9.18;50.52;101424.47;5109698;28;20023;-76
2022/02/24 08:54:29;;;;;;;9.50;4.95;;;;;;;9.03;50.50;101439.69;5110058;28;20032;-76
2022/02/24 08:56:55;;;;;;;11.63;4.95;;;;;;;8.94;51.12;101426.06;5109705;28;20085;-76
2022/02/24 08:59:20;;;;;;;13.40;4.68;;;;;;;8.82;51.20;101421.47;5109835;28;20058;-77
2022/02/24 09:01:45;;;;;;;17.23;5.25;;;;;;;8.73;52.02;101411.34;5109716;28;20026;-76
2022/02/24 09:04:13;;;;;;;8.23;4.47;;;;;;;8.77;51.64;101420.91;5108318;28;20392;-76
2022/02/24 09:06:38;;;;;;;11.65;5.13;;;;;;;8.77;52.05;101427.09;5108475;28;20036;-76
2022/02/24 09:09:04;;;;;;;8.77;4.60;;;;;;;8.72;52.15;101423.88;5109686;28;20019;-76
2022/02/24 09:11:29;;;;;;;8.80;4.68;;;;;;;8.69;52.28;101409.81;5109610;28;20110;-76
2022/02/24 09:13:54;;;;;;;10.25;4.38;;;;;;;8.82;52.16;101426.81;5109409;28;20063;-76
2022/02/24 09:16:20;;;;;;;9.38;4.50;;;;;;;8.85;51.80;101414.13;5108338;28;20083;-77
2022/02/24 09:18:46;;;;;;;12.25;4.60;;;;;;;8.93;51.87;101421.63;5109434;28;20019;-75
2022/02/24 09:21:12;;;;;;;10.23;4.22;;;;;;;8.95;50.93;101414.38;5109176;28;20019;-77
2022/02/24 09:23:37;;;;;;;9.23;4.32;;;;;;;9.07;50.83;101406.44;5109569;28;20428;-75
2022/02/24 09:26:03;;;;;;;9.50;3.65;;;;;;;9.21;50.50;101408.22;5109557;28;20091;-77
2022/02/24 09:28:28;;;;;;;7.78;3.78;;;;;;;9.38;50.43;101412.50;5109516;28;20486;-76
2022/02/24 09:30:54;;;;;;;8.27;3.75;;;;;;;9.65;49.46;101405.28;5109211;28;20028;-77
2022/02/24 09:33:20;;;;;;;8.30;3.95;;;;;;;9.87;48.75;101398.38;5106938;28;20032;-76
2022/02/24 09:35:45;;;;;;;7.43;3.67;;;;;;;10.31;47.59;101401.59;5109235;28;20496;-77
2022/02/24 09:38:11;;;;;;;9.48;3.75;;;;;;;10.82;46.71;101387.19;5109874;28;20374;-77
2022/02/24 09:40:36;;;;;;;8.85;3.10;;;;;;;12.20;44.33;101377.63;5113827;28;20054;-78
2022/02/24 09:43:03;;;;;;;7.72;3.20;;;;;;;14.35;38.91;101378.56;5112285;28;20023;-76
2022/02/24 09:45:29;;;;;;;6.45;3.05;;;;;;;16.42;35.83;101364.72;5113590;28;20076;-77
2022/02/24 09:47:55;;;;;;;8.45;3.60;;;;;;;18.43;32.18;101350.69;5111890;28;20110;-77
2022/02/24 09:50:23;;;;;;;9.23;3.70;;;;;;;20.13;29.24;101328.28;5113099;28;20055;-77
2022/02/24 09:52:49;;;;;;;7.18;3.65;;;;;;;21.56;27.17;101319.75;5113439;28;20034;-77
2022/02/24 09:55:15;;;;;;;7.25;3.25;;;;;;;22.82;25.12;101317.06;5113339;28;20032;-77
2022/02/24 09:57:40;;;;;;;5.90;3.05;;;;;;;23.75;23.82;101313.38;5113262;28;20124;-77
2022/02/24 10:00:07;;;;;;;6.47;3.00;;;;;;;24.81;22.63;101310.44;5111986;28;20050;-78
2022/02/24 10:02:32;;;;;;;4.07;2.42;;;;;;;25.41;21.36;101285.81;5113262;28;20107;-77
2022/02/24 10:05:10;;;;;;;5.97;2.60;;;;;;;25.80;20.62;101297.72;5112962;28;20107;-76
2022/02/24 10:07:37;;;;;;;4.88;2.38;;;;;;;26.11;20.58;101289.72;5113529;28;20068;-77
2022/02/24 10:10:31;;;;;;;7.10;2.40;;;;;;;26.55;20.10;101278.03;5112847;28;20023;-76
2022/02/24 10:13:09;;;;;;;6.72;2.85;;;;;;;26.91;19.37;101285.78;5112905;28;20410;-77
2022/02/24 10:15:57;;;;;;;7.78;3.28;;;;;;;27.10;19.57;101276.59;5113231;28;20144;-78
2022/02/24 10:18:24;;;;;;;4.78;2.85;;;;;;;27.36;18.80;101282.00;5104837;28;20453;-71
2022/02/24 10:20:56;;;;;;;6.72;2.92;;;;;;;27.52;18.47;101265.81;5111503;28;20077;-71
2022/02/24 10:23:34;;;;;;;8.52;3.10;;;;;;;27.48;18.54;101259.06;5111599;28;20038;-71
2022/02/24 10:26:03;;;;;;;8.93;3.08;;;;;;;27.70;18.57;101259.53;5111547;28;20390;-71
2022/02/24 10:28:42;;;;;;;7.13;3.05;;;;;;;27.77;18.25;101254.81;5111802;28;20049;-72
2022/02/24 10:31:09;;;;;;;7.78;3.10;;;;;;;27.82;18.53;101247.56;5111486;28;20081;-71
2022/02/24 10:33:36;;;;;;;6.00;2.67;;;;;;;27.65;18.99;101251.09;5110346;28;20037;-71
2022/02/24 10:36:08;;;;;;;6.47;2.80;;;;;;;26.97;18.89;101255.47;5111475;28;20481;-71
2022/02/24 10:38:33;;;;;;;6.90;2.65;;;;;;;26.35;19.17;101231.28;5111549;28;20035;-72
2022/02/24 10:40:58;;;;;;;7.93;3.38;;;;;;;26.10;19.36;101243.19;5111277;28;20045;-71
2022/02/24 10:43:27;;;;;;;10.40;3.35;;;;;;;25.19;20.37;101251.28;5111195;28;20031;-71
2022/02/24 10:46:03;;;;;;;8.57;2.80;;;;;;;23.77;21.31;101250.16;5111079;28;20058;-71
2022/02/24 10:48:30;;;;;;;7.18;2.55;;;;;;;22.70;22.03;101247.44;5111210;28;20442;-72
2022/02/24 10:51:00;;;;;;;5.03;2.42;;;;;;;21.70;22.98;101255.31;5109622;28;20040;-71
2022/02/24 10:53:29;;;;;;;4.47;2.15;;;;;;;20.71;23.71;101234.44;5110093;28;20449;-72
2022/02/24 10:55:56;;;;;;;8.88;3.10;;;;;;;19.67;24.88;101238.25;5108640;28;20080;-71
2022/02/24 10:58:22;;;;;;;7.95;3.40;;;;;;;18.88;26.15;101235.25;5109804;28;20030;-72
2022/02/24 11:00:48;;;;;;;5.80;2.38;;;;;;;18.18;26.98;101251.03;5109855;28;20058;-72
2022/02/24 11:03:13;;;;;;;7.63;2.55;;;;;;;17.30;27.52;101241.16;5109544;28;20074;-72
2022/02/24 11:05:42;;;;;;;6.15;2.40;;;;;;;16.60;28.85;101223.97;5110096;28;20031;-71
2022/02/24 11:08:08;;;;;;;5.45;2.03;;;;;;;16.14;28.98;101238.41;5109986;28;20039;-72
2022/02/24 11:10:38;;;;;;;4.18;2.00;;;;;;;15.57;30.19;101231.28;5109913;28;20027;-71